createdAt,value
2022-12-03T00:01:40.449Z,37.10
2022-12-03T00:04:18.021Z,36.70
2022-12-03T00:06:50.498Z,38.10
2022-12-03T00:09:23.376Z,36.30
2022-12-03T00:11:55.723Z,36.70
2022-12-03T00:14:29.352Z,36.40
2022-12-03T00:17:03.040Z,37.10
2022-12-03T00:19:36.567Z,34.90
2022-12-03T00:22:08.563Z,34.70
2022-12-03T00:24:42.301Z,34.50
2022-12-03T00:27:14.092Z,35.10
2022-12-03T00:29:46.838Z,34.60
2022-12-03T00:32:20.054Z,34.70
2022-12-03T00:34:52.743Z,34.90
2022-12-03T00:37:29.856Z,35.60
2022-12-03T00:40:02.629Z,35.10
2022-12-03T00:42:35.891Z,34.10
2022-12-03T00:45:11.283Z,33.90
2022-12-03T00:47:43.103Z,33.30
2022-12-03T00:50:17.715Z,33.10
2022-12-03T00:52:52.166Z,34.30
2022-12-03T00:55:24.984Z,33.50
2022-12-03T00:57:58.207Z,32.10
2022-12-03T01:00:32.072Z,33.30
2022-12-03T01:03:05.336Z,33.50
2022-12-03T01:05:40.207Z,32.70
2022-12-03T01:08:14.415Z,32.40
2022-12-03T01:10:49.056Z,31.80
2022-12-03T01:13:22.094Z,33.20
2022-12-03T01:15:53.999Z,31.50
2022-12-03T01:18:27.574Z,33.10
2022-12-03T01:21:04.216Z,33.10
2022-12-03T01:23:39.463Z,32.30
2022-12-03T01:26:14.097Z,31.80
2022-12-03T01:28:46.129Z,31.50
2022-12-03T01:31:36.973Z,31.10
2022-12-03T01:34:10.145Z,30.90
2022-12-03T01:36:45.153Z,31.00
2022-12-03T01:39:17.066Z,32.00
2022-12-03T01:41:53.735Z,32.40
2022-12-03T01:44:32.764Z,31.00
2022-12-03T01:47:07.312Z,31.70
2022-12-03T01:49:43.804Z,32.80
2022-12-03T01:52:19.102Z,31.70
2022-12-03T01:54:56.177Z,31.50
2022-12-03T01:57:32.752Z,32.20
2022-12-03T02:00:06.814Z,31.00
2022-12-03T02:02:41.074Z,32.60
2022-12-03T02:05:20.575Z,30.80
2022-12-03T02:07:53.265Z,31.90
2022-12-03T02:10:28.688Z,29.90
2022-12-03T02:13:06.344Z,30.50
2022-12-03T02:15:42.639Z,30.10
2022-12-03T02:18:15.247Z,30.40
2022-12-03T02:20:57.316Z,28.30
2022-12-03T02:23:37.685Z,30.30
2022-12-03T02:26:11.616Z,30.20
2022-12-03T02:28:45.177Z,30.20
2022-12-03T02:31:19.624Z,30.60
2022-12-03T02:33:53.711Z,30.10
2022-12-03T02:36:26.858Z,29.80
2022-12-03T02:38:59.443Z,30.30
2022-12-03T02:41:51.520Z,29.00
2022-12-03T02:44:23.627Z,29.20
2022-12-03T02:46:55.621Z,29.00
2022-12-03T02:49:27.678Z,29.40
2022-12-03T02:52:00.830Z,30.20
2022-12-03T02:54:33.836Z,29.70
2022-12-03T02:57:08.874Z,30.00
2022-12-03T02:59:42.220Z,29.70
2022-12-03T03:02:14.373Z,29.20
2022-12-03T03:04:49.952Z,30.20
2022-12-03T03:07:22.189Z,29.60
2022-12-03T03:09:56.841Z,28.70
2022-12-03T03:12:28.766Z,29.20
2022-12-03T03:15:04.980Z,31.20
2022-12-03T03:17:39.321Z,29.40
2022-12-03T03:20:15.574Z,29.30
2022-12-03T03:22:49.337Z,30.80
2022-12-03T03:25:24.859Z,30.40
2022-12-03T03:27:57.892Z,28.70
2022-12-03T03:30:34.023Z,30.60
2022-12-03T03:33:07.842Z,29.50
2022-12-03T03:35:41.604Z,29.20
2022-12-03T03:38:14.055Z,29.80
2022-12-03T03:40:48.192Z,29.70
2022-12-03T03:43:21.196Z,29.80
2022-12-03T03:45:53.796Z,29.10
2022-12-03T03:48:27.251Z,29.50
2022-12-03T03:50:59.624Z,29.50
2022-12-03T03:53:33.504Z,28.40
2022-12-03T03:56:06.479Z,29.50
2022-12-03T03:58:38.840Z,27.90
2022-12-03T04:01:12.778Z,28.80
2022-12-03T04:03:46.924Z,28.90
2022-12-03T04:06:20.424Z,28.00
2022-12-03T04:08:52.815Z,28.80
2022-12-03T04:11:46.987Z,27.90
2022-12-03T04:14:21.537Z,28.20
2022-12-03T04:16:54.420Z,29.00
2022-12-03T04:19:28.247Z,29.30
2022-12-03T04:22:23.405Z,28.90
2022-12-03T04:25:16.672Z,28.90
2022-12-03T04:28:06.176Z,29.90
2022-12-03T04:30:40.484Z,28.50
2022-12-03T04:33:33.637Z,29.40
2022-12-03T04:36:08.579Z,29.30
2022-12-03T04:38:40.650Z,29.30
2022-12-03T04:41:14.351Z,28.70
2022-12-03T04:44:02.554Z,29.60
2022-12-03T04:46:34.614Z,29.80
2022-12-03T04:49:08.971Z,29.10
2022-12-03T04:51:44.708Z,30.70
2022-12-03T04:54:17.106Z,32.30
2022-12-03T04:56:50.437Z,38.90
2022-12-03T04:59:22.566Z,38.10
2022-12-03T05:01:56.909Z,32.30
2022-12-03T05:04:29.720Z,32.10
2022-12-03T05:07:03.852Z,32.00
2022-12-03T05:09:37.802Z,31.00
2022-12-03T05:12:10.952Z,30.50
2022-12-03T05:14:46.373Z,30.80
2022-12-03T05:17:18.916Z,30.90
2022-12-03T05:20:23.532Z,29.20
2022-12-03T05:22:57.609Z,29.40
2022-12-03T05:25:30.744Z,32.20
2022-12-03T05:28:06.558Z,34.50
2022-12-03T05:30:39.928Z,44.90
2022-12-03T05:33:15.725Z,37.40
2022-12-03T05:35:48.810Z,36.50
2022-12-03T05:38:20.712Z,35.30
2022-12-03T05:40:52.826Z,37.00
2022-12-03T05:43:25.985Z,36.50
2022-12-03T05:45:59.329Z,38.30
2022-12-03T05:48:33.049Z,33.20
2022-12-03T05:51:06.505Z,31.20
2022-12-03T05:53:38.696Z,31.80
2022-12-03T05:56:15.387Z,31.00
2022-12-03T05:58:47.165Z,30.70
2022-12-03T06:01:21.782Z,31.00
2022-12-03T06:03:55.334Z,31.00
2022-12-03T06:06:30.602Z,34.00
2022-12-03T06:09:06.935Z,33.20
2022-12-03T06:11:41.431Z,37.30
2022-12-03T06:14:18.803Z,34.70
2022-12-03T06:16:51.542Z,35.10
2022-12-03T06:19:24.989Z,35.20
2022-12-03T06:21:58.463Z,36.20
2022-12-03T06:24:30.994Z,35.20
2022-12-03T06:27:04.901Z,40.30
2022-12-03T06:29:37.494Z,40.40
2022-12-03T06:32:11.331Z,37.20
2022-12-03T06:34:44.186Z,36.10
2022-12-03T06:37:16.101Z,38.20
2022-12-03T06:39:48.057Z,37.40
2022-12-03T06:42:21.100Z,37.40
2022-12-03T06:44:54.736Z,38.30
2022-12-03T06:47:27.797Z,39.90
2022-12-03T06:49:59.833Z,38.00
2022-12-03T06:52:32.359Z,42.80
2022-12-03T06:55:05.224Z,42.40
2022-12-03T06:57:39.648Z,44.30
2022-12-03T07:00:14.163Z,41.30
2022-12-03T07:02:48.631Z,42.40
2022-12-03T07:05:21.703Z,42.40
2022-12-03T07:07:55.750Z,50.00
2022-12-03T07:10:31.365Z,55.90
2022-12-03T07:13:04.653Z,53.80
2022-12-03T07:15:36.692Z,51.50
2022-12-03T07:18:11.249Z,52.50
2022-12-03T07:20:44.113Z,50.40
2022-12-03T07:23:15.866Z,54.10
2022-12-03T07:25:50.110Z,53.10
2022-12-03T07:28:24.414Z,55.70
2022-12-03T07:30:58.932Z,56.60
2022-12-03T07:33:35.199Z,51.30
2022-12-03T07:36:10.481Z,48.80
2022-12-03T07:38:42.331Z,49.40
2022-12-03T07:41:14.886Z,54.30
2022-12-03T07:43:46.885Z,58.80
2022-12-03T07:46:22.474Z,49.50
2022-12-03T07:48:57.558Z,51.50
2022-12-03T07:51:32.279Z,58.20
2022-12-03T07:54:06.177Z,56.80
2022-12-03T07:56:39.704Z,79.40
2022-12-03T07:59:12.787Z,62.50
2022-12-03T08:01:46.671Z,55.40
2022-12-03T08:04:21.380Z,41.80
2022-12-03T08:06:53.452Z,40.00
2022-12-03T08:09:26.828Z,46.80
2022-12-03T08:12:06.913Z,43.90
2022-12-03T08:14:40.063Z,44.10
2022-12-03T08:17:14.790Z,41.60
2022-12-03T08:19:48.714Z,40.10
2022-12-03T08:22:22.280Z,41.00
2022-12-03T08:24:55.353Z,41.10
2022-12-03T08:27:29.328Z,42.60
2022-12-03T08:30:05.585Z,42.50
2022-12-03T08:32:43.491Z,42.60
2022-12-03T08:35:22.760Z,44.00
2022-12-03T08:40:55.539Z,46.20
2022-12-03T08:43:31.605Z,45.40
2022-12-03T08:46:13.451Z,68.80
2022-12-03T08:51:38.230Z,47.10
2022-12-03T08:54:16.317Z,52.10
2022-12-03T08:56:48.721Z,52.80
2022-12-03T08:59:40.296Z,45.20
2022-12-03T09:02:23.933Z,46.80
2022-12-03T09:04:57.373Z,46.40
2022-12-03T09:07:30.585Z,48.60
2022-12-03T09:10:04.770Z,45.40
2022-12-03T09:12:38.583Z,43.00
2022-12-03T09:15:12.279Z,45.10
2022-12-03T09:17:46.595Z,46.30
2022-12-03T09:20:20.481Z,48.40
2022-12-03T09:22:54.788Z,48.00
2022-12-03T09:25:29.064Z,48.10
2022-12-03T09:28:03.693Z,48.10
2022-12-03T09:30:36.235Z,49.30
2022-12-03T09:33:12.096Z,47.00
2022-12-03T09:35:50.475Z,48.70
2022-12-03T09:38:24.721Z,48.70
2022-12-03T09:40:57.231Z,50.50
2022-12-03T09:44:02.880Z,47.70
2022-12-03T09:46:25.340Z,54.50
2022-12-03T09:48:59.746Z,51.80
2022-12-03T09:51:36.837Z,45.30
2022-12-03T09:54:11.528Z,44.10
2022-12-03T09:56:44.270Z,45.30
2022-12-03T09:59:18.107Z,43.90
2022-12-03T10:01:50.838Z,43.70
2022-12-03T10:04:24.201Z,44.90
2022-12-03T10:06:56.168Z,45.90
2022-12-03T10:09:31.306Z,47.20
2022-12-03T10:12:06.254Z,45.20
2022-12-03T10:14:40.855Z,45.40
2022-12-03T10:17:14.576Z,49.20
2022-12-03T10:19:48.352Z,49.50
2022-12-03T10:22:21.170Z,46.00
2022-12-03T10:25:08.897Z,43.50
2022-12-03T10:27:42.572Z,43.20
2022-12-03T10:30:23.425Z,45.40
2022-12-03T10:32:57.511Z,45.30
2022-12-03T10:35:41.367Z,49.90
2022-12-03T10:38:23.263Z,50.80
2022-12-03T10:40:55.321Z,50.00
2022-12-03T10:43:28.539Z,48.90
2022-12-03T10:46:17.469Z,50.20
2022-12-03T10:49:16.492Z,47.50
2022-12-03T10:51:49.352Z,46.70
2022-12-03T10:54:24.470Z,44.00
2022-12-03T10:56:57.524Z,41.70
2022-12-03T10:59:35.257Z,47.30
2022-12-03T11:02:12.579Z,47.10
2022-12-03T11:04:44.636Z,45.50
2022-12-03T11:10:17.141Z,39.10
2022-12-03T11:13:20.459Z,39.90
2022-12-03T11:15:59.672Z,46.70
2022-12-03T11:19:07.440Z,51.70
2022-12-03T11:22:17.541Z,49.60
2022-12-03T11:25:29.471Z,43.30
2022-12-03T11:28:34.240Z,44.50
2022-12-03T11:31:14.073Z,40.00
2022-12-03T11:33:56.820Z,40.70
2022-12-03T11:36:48.011Z,42.90
2022-12-03T11:40:20.678Z,39.00
2022-12-03T11:42:58.634Z,37.90
2022-12-03T11:45:37.153Z,38.50
2022-12-03T11:48:17.191Z,41.90
2022-12-03T11:50:53.702Z,45.40
2022-12-03T11:53:29.486Z,50.90
2022-12-03T11:59:03.851Z,51.00
2022-12-03T12:01:40.438Z,63.20
2022-12-03T12:04:33.337Z,50.70
2022-12-03T12:07:09.110Z,47.30
2022-12-03T12:09:56.587Z,42.60
2022-12-03T12:12:38.693Z,42.20
2022-12-03T12:15:50.342Z,76.70
2022-12-03T12:18:43.905Z,51.30
2022-12-03T12:21:48.638Z,49.40
2022-12-03T12:24:47.205Z,44.30
2022-12-03T12:27:23.003Z,39.30
2022-12-03T12:29:58.134Z,43.00
2022-12-03T12:32:31.841Z,55.00
2022-12-03T12:35:17.000Z,48.60
2022-12-03T12:38:00.113Z,46.50
2022-12-03T12:40:55.107Z,48.20
2022-12-03T12:43:32.378Z,46.00
2022-12-03T12:46:46.831Z,46.10
2022-12-03T12:49:14.398Z,46.90
2022-12-03T12:51:49.853Z,50.90
2022-12-03T12:54:21.971Z,46.20
2022-12-03T12:56:55.091Z,47.00
2022-12-03T12:59:28.674Z,47.70
2022-12-03T13:02:04.547Z,47.30
2022-12-03T13:04:41.470Z,49.40
2022-12-03T13:10:23.334Z,48.70
2022-12-03T13:12:56.514Z,49.50
2022-12-03T13:15:43.361Z,49.00
2022-12-03T13:18:29.400Z,48.60
2022-12-03T13:21:15.241Z,51.50
2022-12-03T13:23:50.040Z,52.70
2022-12-03T13:29:18.980Z,52.00
2022-12-03T13:31:54.096Z,50.80
2022-12-03T13:34:30.476Z,51.50
2022-12-03T13:37:09.338Z,50.90
2022-12-03T13:39:47.700Z,51.90
2022-12-03T13:42:44.020Z,52.40
2022-12-03T13:45:39.444Z,52.00
2022-12-03T13:48:23.525Z,53.00
2022-12-03T13:50:59.145Z,53.40
2022-12-03T13:53:36.858Z,55.40
2022-12-03T13:56:21.663Z,55.40
2022-12-03T13:58:55.461Z,57.20
2022-12-03T14:01:46.681Z,66.40
2022-12-03T14:04:22.675Z,54.70
2022-12-03T14:06:56.719Z,54.40
2022-12-03T14:09:32.469Z,56.00
2022-12-03T14:12:25.086Z,53.50
2022-12-03T14:14:59.306Z,50.80
2022-12-03T14:17:32.304Z,50.70
2022-12-03T14:20:04.929Z,50.90
2022-12-03T14:22:38.200Z,52.70
2022-12-03T14:25:12.660Z,51.70
2022-12-03T14:27:45.740Z,51.30
2022-12-03T14:30:19.438Z,53.90
2022-12-03T14:32:52.591Z,54.40
2022-12-03T14:35:24.530Z,51.90
2022-12-03T14:37:57.720Z,54.50
2022-12-03T14:40:30.983Z,56.60
2022-12-03T14:43:06.016Z,56.50
2022-12-03T14:45:44.311Z,58.10
2022-12-03T14:48:17.154Z,57.30
2022-12-03T14:50:49.708Z,58.90
2022-12-03T14:53:32.130Z,58.70
2022-12-03T14:56:10.117Z,56.90
2022-12-03T14:58:42.881Z,58.90
2022-12-03T15:01:16.834Z,55.70
2022-12-03T15:03:49.340Z,54.70
2022-12-03T15:06:22.083Z,54.20
2022-12-03T15:08:55.298Z,52.50
2022-12-03T15:11:32.457Z,52.40
2022-12-03T15:14:07.592Z,51.80
2022-12-03T15:16:41.382Z,53.30
2022-12-03T15:22:08.173Z,53.00
2022-12-03T15:24:40.804Z,60.40
2022-12-03T15:27:18.748Z,50.30
2022-12-03T15:29:53.727Z,53.60
2022-12-03T15:35:19.716Z,56.40
2022-12-03T15:37:52.385Z,57.00
2022-12-03T15:40:27.055Z,56.00
2022-12-03T15:43:00.956Z,56.50
2022-12-03T15:45:33.218Z,59.00
2022-12-03T15:48:06.609Z,58.00
2022-12-03T15:50:40.414Z,55.20
2022-12-03T15:53:15.196Z,54.40
2022-12-03T15:55:50.848Z,53.70
2022-12-03T15:58:24.411Z,53.90
2022-12-03T16:00:57.369Z,53.10
2022-12-03T16:03:41.517Z,52.60
2022-12-03T16:06:18.235Z,53.70
2022-12-03T16:08:50.600Z,53.30
2022-12-03T16:11:23.979Z,50.80
2022-12-03T16:13:57.211Z,51.00
2022-12-03T16:16:33.785Z,51.30
2022-12-03T16:19:14.252Z,49.70
2022-12-03T16:21:47.984Z,48.10
2022-12-03T16:24:22.226Z,48.60
2022-12-03T16:26:55.624Z,48.50
2022-12-03T16:29:29.668Z,47.60
2022-12-03T16:32:04.060Z,47.40
2022-12-03T16:34:36.794Z,48.00
2022-12-03T16:37:13.312Z,47.70
2022-12-03T16:39:49.483Z,49.50
2022-12-03T16:42:23.939Z,48.40
2022-12-03T16:45:22.942Z,49.50
2022-12-03T16:47:55.898Z,48.40
2022-12-03T16:50:30.851Z,48.40
2022-12-03T16:53:06.656Z,49.30
2022-12-03T16:55:39.658Z,48.40
2022-12-03T16:58:14.133Z,49.70
2022-12-03T17:00:48.633Z,51.60
2022-12-03T17:03:22.637Z,48.60
2022-12-03T17:05:54.936Z,47.30
2022-12-03T17:08:30.113Z,47.10
2022-12-03T17:11:04.022Z,47.30
2022-12-03T17:13:37.960Z,46.30
2022-12-03T17:16:10.248Z,45.90
2022-12-03T17:18:43.389Z,46.60
2022-12-03T17:21:17.042Z,45.00
2022-12-03T17:23:51.672Z,47.70
2022-12-03T17:26:24.460Z,44.80
2022-12-03T17:28:56.266Z,44.90
2022-12-03T17:31:28.907Z,47.10
2022-12-03T17:34:01.553Z,47.00
2022-12-03T17:36:33.848Z,47.50
2022-12-03T17:39:07.815Z,47.30
2022-12-03T17:41:40.547Z,49.90
2022-12-03T17:44:19.270Z,48.30
2022-12-03T17:46:53.947Z,46.10
2022-12-03T17:49:31.558Z,46.00
2022-12-03T17:52:07.586Z,45.10
2022-12-03T17:55:08.997Z,45.70
2022-12-03T17:57:36.669Z,45.50
2022-12-03T18:00:13.034Z,45.00
2022-12-03T18:02:46.703Z,43.40
2022-12-03T18:05:20.277Z,44.50
2022-12-03T18:07:57.950Z,45.60
2022-12-03T18:10:30.883Z,45.20
2022-12-03T18:13:05.762Z,44.40
2022-12-03T18:15:37.824Z,46.00
2022-12-03T18:18:10.396Z,44.70
2022-12-03T18:20:43.314Z,47.70
2022-12-03T18:23:17.155Z,47.70
2022-12-03T18:25:50.866Z,49.80
2022-12-03T18:28:27.431Z,51.40
2022-12-03T18:31:00.849Z,49.90
2022-12-03T18:33:34.086Z,49.50
2022-12-03T18:36:14.897Z,49.50
2022-12-03T18:38:52.254Z,49.80
2022-12-03T18:41:27.997Z,50.80
2022-12-03T18:44:01.042Z,50.40
2022-12-03T18:49:28.163Z,51.00
2022-12-03T18:52:01.594Z,51.40
2022-12-03T18:54:35.808Z,52.20
2022-12-03T18:57:11.971Z,51.70
2022-12-03T18:59:45.021Z,50.40
2022-12-03T19:05:15.775Z,52.50
2022-12-03T19:07:51.778Z,51.40
2022-12-03T19:10:26.205Z,51.90
2022-12-03T19:12:58.859Z,52.40
2022-12-03T19:15:35.105Z,53.00
2022-12-03T19:18:09.595Z,51.50
2022-12-03T19:20:43.937Z,53.00
2022-12-03T19:23:18.974Z,52.40
2022-12-03T19:26:01.324Z,51.90
2022-12-03T19:28:34.178Z,49.70
2022-12-03T19:31:08.241Z,49.80
2022-12-03T19:33:42.776Z,50.80
2022-12-03T19:36:23.092Z,48.20
2022-12-03T19:39:00.378Z,49.90
2022-12-03T19:41:33.977Z,47.90
2022-12-03T19:44:10.854Z,47.70
2022-12-03T19:46:44.232Z,49.60
2022-12-03T19:49:21.442Z,49.00
2022-12-03T19:51:54.156Z,48.90
2022-12-03T19:54:28.800Z,49.60
2022-12-03T19:57:01.619Z,48.50
2022-12-03T19:59:34.016Z,48.70
2022-12-03T20:02:07.380Z,50.10
2022-12-03T20:04:41.620Z,49.40
2022-12-03T20:07:15.812Z,49.70
2022-12-03T20:09:48.254Z,49.40
2022-12-03T20:12:21.492Z,48.80
2022-12-03T20:14:53.638Z,49.40
2022-12-03T20:17:26.827Z,48.70
2022-12-03T20:19:59.571Z,47.70
2022-12-03T20:22:35.758Z,47.90
2022-12-03T20:25:10.048Z,49.70
2022-12-03T20:27:42.895Z,48.80
2022-12-03T20:30:16.692Z,49.40
2022-12-03T20:32:49.725Z,48.60
2022-12-03T20:35:22.820Z,49.50
2022-12-03T20:37:56.287Z,49.80
2022-12-03T20:40:28.899Z,50.90
2022-12-03T20:43:02.696Z,50.90
2022-12-03T20:45:37.499Z,50.60
2022-12-03T20:48:11.534Z,53.20
2022-12-03T20:50:45.954Z,55.70
2022-12-03T20:53:25.525Z,55.20
2022-12-03T20:56:00.239Z,54.70
2022-12-03T20:58:35.490Z,54.90
2022-12-03T21:01:17.299Z,56.50
2022-12-03T21:03:50.971Z,55.40
2022-12-03T21:06:24.310Z,55.80
2022-12-03T21:08:58.365Z,57.60
2022-12-03T21:11:37.806Z,57.90
2022-12-03T21:14:13.031Z,56.50
2022-12-03T21:19:42.185Z,56.40
2022-12-03T21:22:15.951Z,55.90
2022-12-03T21:24:49.323Z,56.40
2022-12-03T21:27:23.886Z,56.50
2022-12-03T21:29:57.984Z,55.40
2022-12-03T21:32:30.635Z,55.00
2022-12-03T21:35:07.055Z,54.20
2022-12-03T21:37:41.021Z,53.00
2022-12-03T21:40:16.857Z,53.00
2022-12-03T21:42:50.723Z,54.30
2022-12-03T21:45:25.410Z,55.20
2022-12-03T21:47:57.675Z,54.20
2022-12-03T21:50:32.817Z,54.80
2022-12-03T21:53:07.500Z,55.20
2022-12-03T21:55:45.130Z,55.50
2022-12-03T21:58:19.028Z,55.70
2022-12-03T22:00:52.040Z,55.50
2022-12-03T22:03:27.371Z,53.10
2022-12-03T22:06:00.560Z,53.50
2022-12-03T22:08:34.251Z,52.60
2022-12-03T22:11:12.989Z,51.50
2022-12-03T22:13:46.763Z,51.40
2022-12-03T22:16:22.947Z,51.50
2022-12-03T22:18:58.402Z,53.10
2022-12-03T22:21:33.127Z,53.80
2022-12-03T22:24:11.210Z,53.00
2022-12-03T22:26:50.254Z,55.50
2022-12-03T22:29:36.046Z,56.30
2022-12-03T22:32:12.011Z,55.20
2022-12-03T22:34:49.685Z,55.50
2022-12-03T22:37:25.777Z,55.50
2022-12-03T22:40:00.825Z,56.40
2022-12-03T22:42:34.862Z,55.50
2022-12-03T22:45:20.984Z,55.40
2022-12-03T22:48:02.388Z,55.60
2022-12-03T22:50:37.876Z,55.50
2022-12-03T22:53:14.625Z,55.60
2022-12-03T22:56:01.199Z,55.40
2022-12-03T22:58:35.869Z,56.20
2022-12-03T23:01:10.794Z,55.10
2022-12-03T23:03:51.727Z,56.30
2022-12-03T23:06:25.901Z,55.70
2022-12-03T23:09:00.382Z,56.00
2022-12-03T23:11:38.706Z,54.70
2022-12-03T23:14:13.150Z,56.00
2022-12-03T23:16:49.181Z,56.10
2022-12-03T23:19:25.551Z,56.20
2022-12-03T23:22:01.726Z,54.60
2022-12-03T23:24:35.741Z,54.10
2022-12-03T23:27:09.502Z,54.80
2022-12-03T23:29:43.721Z,54.30
2022-12-03T23:32:15.935Z,53.60
2022-12-03T23:34:47.825Z,54.90
2022-12-03T23:37:21.182Z,54.00
2022-12-03T23:39:53.401Z,52.40
2022-12-03T23:42:26.158Z,51.60
2022-12-03T23:45:00.463Z,51.20
2022-12-03T23:47:34.169Z,51.60
2022-12-03T23:50:07.210Z,50.60
2022-12-03T23:52:40.136Z,50.80
2022-12-03T23:55:13.435Z,51.00
2022-12-03T23:57:46.016Z,49.70
